This is the latest recevied weather packets stored in our database for station/object KN6ETB-1. If no packets are shown the sender has not sent any weather packets the latest 10 day(s).
| Time | Temp. | Humidity | Pressure | Rain* | Wind** | Luminosity | Snow |
|---|---|---|---|---|---|---|---|
| 1777570576 | 20.56° C | 58% | 1012 hPa | 0 mm | - | 832 W/m² | - |
| 1777570274 | 20.56° C | 59% | 1012.1 hPa | 0 mm | - | 844 W/m² | - |
| 1777569969 | 20.56° C | 59% | 1012.1 hPa | 0 mm | - | 847 W/m² | - |
| 1777569665 | 20.56° C | 59% | 1012 hPa | 0 mm | - | 827 W/m² | - |
| 1777569361 | 21.11° C | 59% | 1012.2 hPa | 0 mm | - | 782 W/m² | - |
| 1777569057 | 20.56° C | 59% | 1012.1 hPa | 0 mm | - | 764 W/m² | - |
| 1777568754 | 20° C | 60% | 1012.2 hPa | 0 mm | - | 760 W/m² | - |
| 1777568452 | 20° C | 60% | 1012.1 hPa | 0 mm | - | 757 W/m² | - |
| 1777568148 | 20° C | 61% | 1012.2 hPa | 0 mm | - | 758 W/m² | - |
| 1777567845 | 20° C | 62% | 1012.2 hPa | 0 mm | - | 731 W/m² | - |
| 1777567541 | 20° C | 61% | 1012.2 hPa | 0 mm | - | 703 W/m² | - |
| 1777567239 | 20° C | 62% | 1012.1 hPa | 0 mm | - | 682 W/m² | - |
| 1777566937 | 20° C | 58% | 1012.1 hPa | 0 mm | - | 694 W/m² | - |
| 1777566634 | 20° C | 57% | 1012 hPa | 0 mm | - | 664 W/m² | - |
| 1777566332 | 19.44° C | 58% | 1012.3 hPa | 0 mm | - | 619 W/m² | - |
| 1777566029 | 18.89° C | 60% | 1012.2 hPa | 0 mm | - | 570 W/m² | - |
| 1777565725 | 18.33° C | 60% | 1012.2 hPa | 0 mm | - | 524 W/m² | - |
| 1777565421 | 18.33° C | 63% | 1012.1 hPa | 0 mm | - | 480 W/m² | - |
| 1777565117 | 18.33° C | 67% | 1012.2 hPa | 0 mm | - | 415 W/m² | - |
| 1777564814 | 17.78° C | 69% | 1012.1 hPa | 0 mm | - | 354 W/m² | - |
| 1777564509 | 17.22° C | 68% | 1011.9 hPa | 0 mm | - | 356 W/m² | - |
| 1777564204 | 17.22° C | 68% | 1012 hPa | 0 mm | - | 354 W/m² | - |
| 1777563901 | 17.22° C | 68% | 1011.9 hPa | 0 mm | - | 302 W/m² | - |
| 1777563597 | 16.67° C | 71% | 1011.9 hPa | 0 mm | - | 255 W/m² | - |
| 1777563296 | 16.67° C | 71% | 1012 hPa | 0 mm | - | 287 W/m² | - |
* Rain latest hour (hover to see other rain measurements)
** Current wind speed in m/s (hover to see current wind gust speed)